Pagrindinis puslapis
METAR-TAF:

METAR-TAF

Oro uostai :

Palena, Čilė

platuma: 43-36-41S, ilguma: 071-48-19W, Aukštis: 277 m

Dabartinis oras

Ataskaita buvo paskelbta 15 minutes, ne 13:00 UTC
Vėjas 7 kt iš Pietų su gūsio iki 17 kt, svyruoja nuo Rytų/Pietryčių ir Vakarų/Pietvakarių
Temperatūra 10°C
Drėgmė 57%
Slėgis 1029 hPa
Matomumas 10 km arba daugiau

METAR: SCAP 171300Z AUTO 19007G17KT 110V240 9999 ////// 10/02 Q1029

Laikas: 10:15 (13:15 UTC)


TAF: trūkstamas

Orai ataskaitas ir orų prognozės (METAR, TAF).

turimą stotys yra geltonos ir raudonos taškus žemėlapyje.

Perkelti pele per norėdami pamatyti stoties vardą.

Tada spustelėkite, norėdami matyti oro stebėjimo ir prognozės.

Norėdami pakeisti žemėlapį: spustelėkite ant žalios mygtukų su juodo kryžiaus žemyn,; žalią mygtuką su brūkšneliu, jei norite nutolinti; arba žalių rodyklių gretimoms žemėlapius.


METAR-TAF: